If you wish to contribute or participate in the discussions about articles you are invited to join SKYbrary as a registered user

 Actions

Châteaudun (BA 279) Airport

From SKYbrary Wiki

LFOC /
Revision as of 20:13, 16 February 2015 by Timo.Kouwenhoven (talk | contribs) (LF Airports CSV import)
(diff) ← Older revision | Latest revision (diff) | Newer revision → (diff)
Airport
ICAO: LFOC
Summary
Name Châteaudun (BA 279) Airport
Region Europe
Territory France FR.gif
Location , Centre
Serving Chateaudun
Elevation 131.978 m
433 ft
433 ft131.978 m
Type medium airport
Coordinates 48° 3' 29.31" N, 1° 22' 35.85" E
Runways
Designator Length Width Surface ROPS
10/28 2302 m7,552.493 ft
45 m147.638 ft
ASP /


METAR
Observation LFOC 230030Z AUTO 21009KT 9999 FEW035 BKN042 BKN048 14/13 Q1014
Station Chateaudun
Date/Time 23 September 2019 00:30:00
Wind direction 210°
Wind speed 09 kts
Lowest cloud amount few clouds
Temperature 14°C
Dew point 13°C
Humidity 93%
QNH 1014 hPa
Weather condition n/a